sensor_id;sensor_type;location;lat;lon;timestamp;pressure;altitude;pressure_sealevel;temperature;humidity
77889;BME280;67082;41.704;44.768;2023-03-25T00:01:17;95651.84;;;13.67;59.95
77889;BME280;67082;41.704;44.768;2023-03-25T00:03:46;95652.91;;;13.69;59.82
77889;BME280;67082;41.704;44.768;2023-03-25T00:06:18;95646.75;;;13.65;59.91
77889;BME280;67082;41.704;44.768;2023-03-25T00:08:47;95647.03;;;13.67;59.99
77889;BME280;67082;41.704;44.768;2023-03-25T00:11:15;95643.59;;;13.72;60.06
77889;BME280;67082;41.704;44.768;2023-03-25T00:13:43;95640.22;;;13.68;60.06
77889;BME280;67082;41.704;44.768;2023-03-25T00:16:11;95646.38;;;13.72;60.20
77889;BME280;67082;41.704;44.768;2023-03-25T00:18:39;95651.34;;;13.68;59.72
77889;BME280;67082;41.704;44.768;2023-03-25T00:21:08;95646.09;;;13.70;59.64
77889;BME280;67082;41.704;44.768;2023-03-25T00:23:40;95651.13;;;13.57;60.24
77889;BME280;67082;41.704;44.768;2023-03-25T00:26:10;95650.34;;;13.57;60.62
77889;BME280;67082;41.704;44.768;2023-03-25T00:28:38;95657.28;;;13.61;60.00
77889;BME280;67082;41.704;44.768;2023-03-25T00:31:10;95657.88;;;13.33;61.39
77889;BME280;67082;41.704;44.768;2023-03-25T00:33:39;95643.88;;;13.18;61.47
77889;BME280;67082;41.704;44.768;2023-03-25T00:36:11;95654.03;;;13.30;61.42
77889;BME280;67082;41.704;44.768;2023-03-25T00:38:48;95656.63;;;13.34;61.29
77889;BME280;67082;41.704;44.768;2023-03-25T00:41:21;95640.38;;;13.41;60.79
77889;BME280;67082;41.704;44.768;2023-03-25T00:43:54;95653.22;;;13.39;61.22
77889;BME280;67082;41.704;44.768;2023-03-25T00:46:25;95648.72;;;13.41;60.82
77889;BME280;67082;41.704;44.768;2023-03-25T00:48:55;95645.50;;;13.34;61.25
77889;BME280;67082;41.704;44.768;2023-03-25T00:51:28;95653.03;;;13.42;60.95
77889;BME280;67082;41.704;44.768;2023-03-25T00:53:58;95651.63;;;13.47;60.60
77889;BME280;67082;41.704;44.768;2023-03-25T00:56:28;95656.25;;;13.50;60.33
77889;BME280;67082;41.704;44.768;2023-03-25T00:58:57;95659.50;;;13.48;61.01
77889;BME280;67082;41.704;44.768;2023-03-25T01:01:26;95655.19;;;13.47;60.61
77889;BME280;67082;41.704;44.768;2023-03-25T01:03:57;95651.78;;;13.43;60.70
77889;BME280;67082;41.704;44.768;2023-03-25T01:06:35;95654.63;;;13.34;61.27
77889;BME280;67082;41.704;44.768;2023-03-25T01:09:05;95660.31;;;13.40;60.97
77889;BME280;67082;41.704;44.768;2023-03-25T01:11:35;95651.53;;;13.32;60.76
77889;BME280;67082;41.704;44.768;2023-03-25T01:14:07;95635.97;;;13.26;61.17
77889;BME280;67082;41.704;44.768;2023-03-25T01:16:37;95659.59;;;13.30;61.25
77889;BME280;67082;41.704;44.768;2023-03-25T01:19:05;95657.41;;;13.34;61.38
77889;BME280;67082;41.704;44.768;2023-03-25T01:21:33;95655.56;;;13.31;61.24
77889;BME280;67082;41.704;44.768;2023-03-25T01:24:04;95645.69;;;13.30;61.46
77889;BME280;67082;41.704;44.768;2023-03-25T01:26:33;95651.78;;;13.43;61.34
77889;BME280;67082;41.704;44.768;2023-03-25T01:29:01;95653.69;;;13.37;61.16
77889;BME280;67082;41.704;44.768;2023-03-25T01:31:31;95642.28;;;13.26;61.88
77889;BME280;67082;41.704;44.768;2023-03-25T01:33:59;95639.03;;;13.28;61.49
77889;BME280;67082;41.704;44.768;2023-03-25T01:36:28;95634.00;;;13.08;62.34
77889;BME280;67082;41.704;44.768;2023-03-25T01:38:58;95636.19;;;13.04;62.70
77889;BME280;67082;41.704;44.768;2023-03-25T01:41:28;95641.44;;;12.93;63.10
77889;BME280;67082;41.704;44.768;2023-03-25T01:46:41;95639.00;;;12.95;62.61
77889;BME280;67082;41.704;44.768;2023-03-25T01:49:17;95646.56;;;13.04;62.89
77889;BME280;67082;41.704;44.768;2023-03-25T01:51:54;95651.16;;;13.07;62.71
77889;BME280;67082;41.704;44.768;2023-03-25T01:54:23;95651.34;;;13.03;63.13
77889;BME280;67082;41.704;44.768;2023-03-25T01:56:53;95652.69;;;13.08;63.04
77889;BME280;67082;41.704;44.768;2023-03-25T01:59:24;95650.53;;;13.12;62.69
77889;BME280;67082;41.704;44.768;2023-03-25T02:01:55;95663.53;;;13.15;62.82
77889;BME280;67082;41.704;44.768;2023-03-25T02:04:57;95650.69;;;13.17;62.56
77889;BME280;67082;41.704;44.768;2023-03-25T02:07:34;95646.38;;;13.07;62.93
77889;BME280;67082;41.704;44.768;2023-03-25T02:10:07;95657.16;;;13.14;62.46
77889;BME280;67082;41.704;44.768;2023-03-25T02:12:36;95657.47;;;13.16;62.66
77889;BME280;67082;41.704;44.768;2023-03-25T02:15:06;95656.72;;;13.07;63.15
77889;BME280;67082;41.704;44.768;2023-03-25T02:28:35;95660.59;;;13.09;63.11
77889;BME280;67082;41.704;44.768;2023-03-25T02:34:22;95671.25;;;13.02;62.78
77889;BME280;67082;41.704;44.768;2023-03-25T02:40:11;95679.59;;;13.11;63.03
77889;BME280;67082;41.704;44.768;2023-03-25T02:42:51;95680.38;;;13.11;63.57
77889;BME280;67082;41.704;44.768;2023-03-25T02:45:30;95676.03;;;13.10;63.07
77889;BME280;67082;41.704;44.768;2023-03-25T02:48:04;95686.25;;;13.13;62.70
77889;BME280;67082;41.704;44.768;2023-03-25T02:51:04;95692.88;;;13.16;63.22
77889;BME280;67082;41.704;44.768;2023-03-25T02:53:35;95693.78;;;13.13;62.63
77889;BME280;67082;41.704;44.768;2023-03-25T02:56:08;95691.50;;;13.11;62.29
77889;BME280;67082;41.704;44.768;2023-03-25T02:58:39;95699.50;;;13.18;62.60
77889;BME280;67082;41.704;44.768;2023-03-25T03:01:10;95697.03;;;13.20;62.48
77889;BME280;67082;41.704;44.768;2023-03-25T03:03:42;95690.22;;;13.21;62.72
77889;BME280;67082;41.704;44.768;2023-03-25T03:06:15;95695.19;;;13.17;62.65
77889;BME280;67082;41.704;44.768;2023-03-25T03:14:25;95714.91;;;13.37;62.62
77889;BME280;67082;41.704;44.768;2023-03-25T03:19:51;95710.13;;;13.29;62.62
77889;BME280;67082;41.704;44.768;2023-03-25T03:25:28;95712.47;;;13.30;62.70
77889;BME280;67082;41.704;44.768;2023-03-25T03:28:11;95715.31;;;13.12;62.87
77889;BME280;67082;41.704;44.768;2023-03-25T03:30:50;95707.53;;;13.25;62.86
77889;BME280;67082;41.704;44.768;2023-03-25T03:33:47;95714.34;;;13.24;62.65
77889;BME280;67082;41.704;44.768;2023-03-25T03:36:20;95706.59;;;13.28;62.62
77889;BME280;67082;41.704;44.768;2023-03-25T03:39:02;95693.28;;;13.32;62.44
77889;BME280;67082;41.704;44.768;2023-03-25T03:41:35;95697.75;;;13.39;62.19
77889;BME280;67082;41.704;44.768;2023-03-25T03:44:10;95692.63;;;13.37;62.35
77889;BME280;67082;41.704;44.768;2023-03-25T03:49:20;95699.81;;;13.20;62.71
77889;BME280;67082;41.704;44.768;2023-03-25T03:51:54;95705.38;;;13.20;62.75
77889;BME280;67082;41.704;44.768;2023-03-25T03:54:26;95683.00;;;13.06;63.20
77889;BME280;67082;41.704;44.768;2023-03-25T03:57:00;95707.09;;;13.18;63.20
77889;BME280;67082;41.704;44.768;2023-03-25T04:02:21;95729.97;;;13.13;62.94
77889;BME280;67082;41.704;44.768;2023-03-25T04:04:52;95730.75;;;13.04;63.25
77889;BME280;67082;41.704;44.768;2023-03-25T04:07:33;95721.50;;;13.07;62.97
77889;BME280;67082;41.704;44.768;2023-03-25T04:13:03;95726.56;;;13.18;62.87
77889;BME280;67082;41.704;44.768;2023-03-25T04:15:35;95730.88;;;13.28;62.42
77889;BME280;67082;41.704;44.768;2023-03-25T04:18:04;95723.59;;;13.30;62.00
77889;BME280;67082;41.704;44.768;2023-03-25T04:20:33;95741.47;;;13.47;61.91
77889;BME280;67082;41.704;44.768;2023-03-25T04:23:03;95743.94;;;13.45;61.66
77889;BME280;67082;41.704;44.768;2023-03-25T04:25:31;95757.00;;;13.21;62.51
77889;BME280;67082;41.704;44.768;2023-03-25T04:28:00;95751.09;;;13.37;62.01
77889;BME280;67082;41.704;44.768;2023-03-25T04:30:29;95749.53;;;13.36;61.97
77889;BME280;67082;41.704;44.768;2023-03-25T04:32:57;95740.25;;;13.39;61.85
77889;BME280;67082;41.704;44.768;2023-03-25T04:35:27;95754.59;;;13.56;61.63
77889;BME280;67082;41.704;44.768;2023-03-25T04:37:55;95747.31;;;13.58;61.11
77889;BME280;67082;41.704;44.768;2023-03-25T04:40:24;95767.66;;;13.73;60.88
77889;BME280;67082;41.704;44.768;2023-03-25T04:42:52;95756.41;;;13.59;61.23
77889;BME280;67082;41.704;44.768;2023-03-25T04:45:21;95757.66;;;13.58;61.36
77889;BME280;67082;41.704;44.768;2023-03-25T04:47:49;95758.09;;;13.65;61.76
77889;BME280;67082;41.704;44.768;2023-03-25T04:50:28;95761.72;;;13.89;60.52
77889;BME280;67082;41.704;44.768;2023-03-25T04:52:57;95751.13;;;14.02;60.20
77889;BME280;67082;41.704;44.768;2023-03-25T04:55:27;95755.69;;;14.14;59.70
77889;BME280;67082;41.704;44.768;2023-03-25T04:57:56;95765.72;;;13.97;59.91
77889;BME280;67082;41.704;44.768;2023-03-25T05:00:25;95758.81;;;13.84;60.27
77889;BME280;67082;41.704;44.768;2023-03-25T05:02:55;95747.44;;;13.96;60.37
77889;BME280;67082;41.704;44.768;2023-03-25T05:05:24;95745.31;;;14.15;59.96
77889;BME280;67082;41.704;44.768;2023-03-25T05:07:53;95741.28;;;13.92;60.12
77889;BME280;67082;41.704;44.768;2023-03-25T05:10:24;95750.72;;;14.18;59.96
77889;BME280;67082;41.704;44.768;2023-03-25T05:13:01;95763.88;;;14.27;60.00
77889;BME280;67082;41.704;44.768;2023-03-25T05:15:30;95743.94;;;14.43;58.98
77889;BME280;67082;41.704;44.768;2023-03-25T05:18:01;95762.78;;;14.71;58.66
77889;BME280;67082;41.704;44.768;2023-03-25T05:20:30;95762.06;;;14.85;58.19
77889;BME280;67082;41.704;44.768;2023-03-25T05:23:01;95753.97;;;14.87;57.73
77889;BME280;67082;41.704;44.768;2023-03-25T05:25:29;95761.28;;;14.99;57.41
77889;BME280;67082;41.704;44.768;2023-03-25T05:28:01;95762.75;;;15.09;56.54
77889;BME280;67082;41.704;44.768;2023-03-25T05:30:32;95779.44;;;15.18;56.67
77889;BME280;67082;41.704;44.768;2023-03-25T05:33:08;95764.13;;;15.28;56.89
77889;BME280;67082;41.704;44.768;2023-03-25T05:35:38;95774.97;;;15.35;56.26
77889;BME280;67082;41.704;44.768;2023-03-25T05:38:06;95769.38;;;15.35;56.28
77889;BME280;67082;41.704;44.768;2023-03-25T05:40:35;95763.16;;;15.31;56.44
77889;BME280;67082;41.704;44.768;2023-03-25T05:43:05;95777.00;;;15.11;56.74
77889;BME280;67082;41.704;44.768;2023-03-25T05:45:34;95761.41;;;14.90;57.12
77889;BME280;67082;41.704;44.768;2023-03-25T05:48:05;95770.03;;;14.92;57.37
77889;BME280;67082;41.704;44.768;2023-03-25T05:50:35;95763.91;;;15.03;57.02
77889;BME280;67082;41.704;44.768;2023-03-25T05:53:04;95775.00;;;15.12;56.95
77889;BME280;67082;41.704;44.768;2023-03-25T05:55:32;95767.56;;;15.23;56.33
77889;BME280;67082;41.704;44.768;2023-03-25T05:58:05;95765.31;;;15.36;55.96
77889;BME280;67082;41.704;44.768;2023-03-25T06:00:34;95757.69;;;15.51;55.72
77889;BME280;67082;41.704;44.768;2023-03-25T06:03:05;95761.00;;;15.64;55.21
77889;BME280;67082;41.704;44.768;2023-03-25T06:05:38;95762.59;;;15.71;55.26
77889;BME280;67082;41.704;44.768;2023-03-25T06:08:06;95757.81;;;15.71;55.32
77889;BME280;67082;41.704;44.768;2023-03-25T06:10:35;95761.44;;;15.77;55.23
77889;BME280;67082;41.704;44.768;2023-03-25T06:13:03;95776.06;;;15.87;55.19
77889;BME280;67082;41.704;44.768;2023-03-25T06:15:31;95759.22;;;15.96;54.89
77889;BME280;67082;41.704;44.768;2023-03-25T06:18:06;95764.47;;;16.08;54.44
77889;BME280;67082;41.704;44.768;2023-03-25T06:20:34;95768.72;;;16.04;54.57
77889;BME280;67082;41.704;44.768;2023-03-25T06:23:02;95765.66;;;16.02;54.72
77889;BME280;67082;41.704;44.768;2023-03-25T06:25:30;95760.81;;;16.02;54.33
77889;BME280;67082;41.704;44.768;2023-03-25T06:27:58;95764.19;;;16.06;54.24
77889;BME280;67082;41.704;44.768;2023-03-25T06:30:30;95761.03;;;15.99;53.94
77889;BME280;67082;41.704;44.768;2023-03-25T06:32:58;95730.78;;;15.83;54.10
77889;BME280;67082;41.704;44.768;2023-03-25T06:35:30;95744.63;;;16.06;53.83
77889;BME280;67082;41.704;44.768;2023-03-25T06:37:58;95741.69;;;16.15;53.56
77889;BME280;67082;41.704;44.768;2023-03-25T06:40:39;95748.13;;;16.21;53.81
77889;BME280;67082;41.704;44.768;2023-03-25T06:43:07;95746.19;;;16.27;53.59
77889;BME280;67082;41.704;44.768;2023-03-25T06:46:10;95751.34;;;16.14;53.00
77889;BME280;67082;41.704;44.768;2023-03-25T06:48:59;95743.00;;;16.34;53.13
77889;BME280;67082;41.704;44.768;2023-03-25T06:51:27;95744.22;;;16.13;53.32
77889;BME280;67082;41.704;44.768;2023-03-25T06:53:55;95742.69;;;16.32;53.08
77889;BME280;67082;41.704;44.768;2023-03-25T06:56:24;95750.75;;;16.25;53.19
77889;BME280;67082;41.704;44.768;2023-03-25T06:58:52;95736.03;;;16.30;52.82
77889;BME280;67082;41.704;44.768;2023-03-25T07:01:21;95744.28;;;16.53;52.28
77889;BME280;67082;41.704;44.768;2023-03-25T07:03:48;95741.19;;;16.71;51.45
77889;BME280;67082;41.704;44.768;2023-03-25T07:06:19;95746.22;;;16.67;51.46
77889;BME280;67082;41.704;44.768;2023-03-25T07:08:48;95745.75;;;16.89;51.48
77889;BME280;67082;41.704;44.768;2023-03-25T07:11:25;95739.38;;;16.88;51.02
77889;BME280;67082;41.704;44.768;2023-03-25T07:13:54;95727.13;;;16.86;50.02
77889;BME280;67082;41.704;44.768;2023-03-25T07:16:24;95732.94;;;16.82;50.39
77889;BME280;67082;41.704;44.768;2023-03-25T07:18:52;95737.97;;;16.78;50.50
77889;BME280;67082;41.704;44.768;2023-03-25T07:21:25;95734.00;;;16.85;49.82
77889;BME280;67082;41.704;44.768;2023-03-25T07:23:53;95731.97;;;16.85;50.91
77889;BME280;67082;41.704;44.768;2023-03-25T07:26:22;95729.38;;;16.82;49.72
77889;BME280;67082;41.704;44.768;2023-03-25T07:28:50;95733.28;;;16.90;48.94
77889;BME280;67082;41.704;44.768;2023-03-25T07:31:18;95736.34;;;16.92;49.34
77889;BME280;67082;41.704;44.768;2023-03-25T07:33:46;95721.09;;;16.93;49.40
77889;BME280;67082;41.704;44.768;2023-03-25T07:36:14;95728.56;;;17.01;49.00
77889;BME280;67082;41.704;44.768;2023-03-25T07:38:43;95724.69;;;17.19;48.84
77889;BME280;67082;41.704;44.768;2023-03-25T07:41:11;95721.00;;;17.33;48.69
77889;BME280;67082;41.704;44.768;2023-03-25T07:43:51;95732.75;;;17.37;48.52
77889;BME280;67082;41.704;44.768;2023-03-25T07:46:25;95728.06;;;17.48;48.35
77889;BME280;67082;41.704;44.768;2023-03-25T07:48:53;95724.34;;;17.37;47.09
77889;BME280;67082;41.704;44.768;2023-03-25T07:51:22;95722.59;;;17.65;46.97
77889;BME280;67082;41.704;44.768;2023-03-25T07:53:49;95708.69;;;17.76;46.47
77889;BME280;67082;41.704;44.768;2023-03-25T07:56:18;95715.91;;;17.88;45.82
77889;BME280;67082;41.704;44.768;2023-03-25T07:58:46;95701.09;;;17.87;46.03
77889;BME280;67082;41.704;44.768;2023-03-25T08:01:16;95697.97;;;17.74;46.13
77889;BME280;67082;41.704;44.768;2023-03-25T08:03:44;95689.69;;;17.60;46.50
77889;BME280;67082;41.704;44.768;2023-03-25T08:06:13;95692.72;;;17.56;46.33
77889;BME280;67082;41.704;44.768;2023-03-25T08:08:41;95678.13;;;17.47;46.76
77889;BME280;67082;41.704;44.768;2023-03-25T08:11:10;95673.56;;;17.49;46.92
77889;BME280;67082;41.704;44.768;2023-03-25T08:13:38;95657.84;;;17.57;47.27
77889;BME280;67082;41.704;44.768;2023-03-25T08:16:14;95663.97;;;17.61;47.73
77889;BME280;67082;41.704;44.768;2023-03-25T08:18:42;95667.50;;;17.56;47.18
77889;BME280;67082;41.704;44.768;2023-03-25T08:21:12;95666.00;;;17.61;46.96
77889;BME280;67082;41.704;44.768;2023-03-25T08:23:40;95663.94;;;17.56;47.34
77889;BME280;67082;41.704;44.768;2023-03-25T08:26:08;95650.63;;;17.45;46.79
77889;BME280;67082;41.704;44.768;2023-03-25T08:28:36;95659.59;;;17.55;47.50
77889;BME280;67082;41.704;44.768;2023-03-25T08:31:06;95655.38;;;17.70;47.37
77889;BME280;67082;41.704;44.768;2023-03-25T08:33:35;95657.53;;;17.86;46.80
77889;BME280;67082;41.704;44.768;2023-03-25T08:36:07;95651.34;;;17.71;46.29
77889;BME280;67082;41.704;44.768;2023-03-25T08:38:37;95641.72;;;17.83;46.72
77889;BME280;67082;41.704;44.768;2023-03-25T08:41:05;95646.78;;;17.79;46.64
77889;BME280;67082;41.704;44.768;2023-03-25T08:43:33;95641.50;;;17.87;46.73
77889;BME280;67082;41.704;44.768;2023-03-25T08:46:01;95627.97;;;17.91;46.73
77889;BME280;67082;41.704;44.768;2023-03-25T08:48:29;95638.41;;;17.85;46.62
77889;BME280;67082;41.704;44.768;2023-03-25T08:50:57;95652.00;;;17.97;46.30
77889;BME280;67082;41.704;44.768;2023-03-25T08:53:26;95645.03;;;17.82;46.20
77889;BME280;67082;41.704;44.768;2023-03-25T08:55:56;95634.19;;;18.00;46.29
77889;BME280;67082;41.704;44.768;2023-03-25T08:58:25;95638.28;;;18.10;46.01
77889;BME280;67082;41.704;44.768;2023-03-25T09:00:54;95636.69;;;17.98;45.86
77889;BME280;67082;41.704;44.768;2023-03-25T09:03:23;95632.69;;;18.10;46.16
77889;BME280;67082;41.704;44.768;2023-03-25T09:05:54;95622.97;;;18.00;45.86
77889;BME280;67082;41.704;44.768;2023-03-25T09:08:22;95622.00;;;18.09;46.13
77889;BME280;67082;41.704;44.768;2023-03-25T09:10:53;95626.88;;;18.25;45.68
77889;BME280;67082;41.704;44.768;2023-03-25T09:13:22;95628.66;;;18.22;45.85
77889;BME280;67082;41.704;44.768;2023-03-25T09:15:50;95621.81;;;18.29;45.22
77889;BME280;67082;41.704;44.768;2023-03-25T09:18:19;95613.47;;;18.45;45.55
77889;BME280;67082;41.704;44.768;2023-03-25T09:20:48;95620.13;;;18.42;45.75
77889;BME280;67082;41.704;44.768;2023-03-25T09:23:16;95614.53;;;18.53;44.97
77889;BME280;67082;41.704;44.768;2023-03-25T09:25:45;95611.00;;;18.58;45.09
77889;BME280;67082;41.704;44.768;2023-03-25T09:28:13;95607.38;;;18.47;45.30
77889;BME280;67082;41.704;44.768;2023-03-25T09:30:41;95606.09;;;18.42;45.32
77889;BME280;67082;41.704;44.768;2023-03-25T09:33:09;95595.88;;;18.39;45.13
77889;BME280;67082;41.704;44.768;2023-03-25T09:35:39;95598.94;;;18.41;45.01
77889;BME280;67082;41.704;44.768;2023-03-25T09:38:07;95581.88;;;18.50;45.54
77889;BME280;67082;41.704;44.768;2023-03-25T09:40:36;95583.94;;;18.50;45.27
77889;BME280;67082;41.704;44.768;2023-03-25T09:45:55;95585.97;;;18.66;45.41
77889;BME280;67082;41.704;44.768;2023-03-25T09:51:08;95568.41;;;18.65;44.88
77889;BME280;67082;41.704;44.768;2023-03-25T09:53:46;95561.03;;;18.79;45.15
77889;BME280;67082;41.704;44.768;2023-03-25T09:56:21;95563.03;;;18.67;45.47
77889;BME280;67082;41.704;44.768;2023-03-25T09:58:55;95564.53;;;18.46;45.25
77889;BME280;67082;41.704;44.768;2023-03-25T10:01:46;95543.38;;;18.62;45.29
77889;BME280;67082;41.704;44.768;2023-03-25T10:04:36;95538.78;;;18.70;44.91
77889;BME280;67082;41.704;44.768;2023-03-25T10:13:01;95518.13;;;18.78;44.66
77889;BME280;67082;41.704;44.768;2023-03-25T10:26:05;95514.03;;;18.79;43.66
77889;BME280;67082;41.704;44.768;2023-03-25T10:28:46;95512.00;;;18.96;43.85
77889;BME280;67082;41.704;44.768;2023-03-25T10:31:18;95518.91;;;18.79;43.27
77889;BME280;67082;41.704;44.768;2023-03-25T10:33:53;95505.38;;;18.88;43.28
77889;BME280;67082;41.704;44.768;2023-03-25T10:36:31;95504.34;;;18.91;43.23
77889;BME280;67082;41.704;44.768;2023-03-25T10:39:05;95500.00;;;18.90;43.14
77889;BME280;67082;41.704;44.768;2023-03-25T10:41:37;95491.59;;;19.01;43.43
77889;BME280;67082;41.704;44.768;2023-03-25T10:44:09;95495.16;;;18.96;43.29
77889;BME280;67082;41.704;44.768;2023-03-25T10:46:49;95496.19;;;19.04;42.89
77889;BME280;67082;41.704;44.768;2023-03-25T10:49:21;95479.34;;;18.93;43.06
77889;BME280;67082;41.704;44.768;2023-03-25T10:51:50;95476.81;;;18.90;43.37
77889;BME280;67082;41.704;44.768;2023-03-25T10:54:33;95487.50;;;19.02;43.15
77889;BME280;67082;41.704;44.768;2023-03-25T10:57:19;95489.00;;;19.14;43.23
77889;BME280;67082;41.704;44.768;2023-03-25T11:02:28;95479.34;;;19.15;42.68
77889;BME280;67082;41.704;44.768;2023-03-25T11:05:03;95482.66;;;19.25;42.99
77889;BME280;67082;41.704;44.768;2023-03-25T11:07:41;95483.94;;;19.29;42.75
77889;BME280;67082;41.704;44.768;2023-03-25T11:10:27;95466.06;;;19.27;42.80
77889;BME280;67082;41.704;44.768;2023-03-25T11:12:55;95481.63;;;19.28;42.59
77889;BME280;67082;41.704;44.768;2023-03-25T11:15:30;95475.50;;;19.29;42.78
77889;BME280;67082;41.704;44.768;2023-03-25T11:20:56;95470.16;;;19.09;43.29
77889;BME280;67082;41.704;44.768;2023-03-25T11:23:31;95460.69;;;19.12;43.79
77889;BME280;67082;41.704;44.768;2023-03-25T11:26:06;95448.69;;;19.06;43.41
77889;BME280;67082;41.704;44.768;2023-03-25T11:28:45;95445.09;;;19.06;43.94
77889;BME280;67082;41.704;44.768;2023-03-25T11:31:18;95440.50;;;19.19;43.32
77889;BME280;67082;41.704;44.768;2023-03-25T11:34:04;95446.09;;;19.19;43.70
77889;BME280;67082;41.704;44.768;2023-03-25T11:36:37;95451.50;;;19.28;42.95
77889;BME280;67082;41.704;44.768;2023-03-25T11:39:16;95438.97;;;19.29;43.18
77889;BME280;67082;41.704;44.768;2023-03-25T11:41:46;95439.22;;;19.37;43.30
77889;BME280;67082;41.704;44.768;2023-03-25T11:44:31;95443.78;;;19.40;42.48
77889;BME280;67082;41.704;44.768;2023-03-25T11:47:06;95441.25;;;19.42;42.83
77889;BME280;67082;41.704;44.768;2023-03-25T11:49:37;95431.28;;;19.35;43.01
77889;BME280;67082;41.704;44.768;2023-03-25T11:52:16;95425.16;;;19.31;42.59
77889;BME280;67082;41.704;44.768;2023-03-25T11:54:47;95417.75;;;19.34;42.79
77889;BME280;67082;41.704;44.768;2023-03-25T11:57:20;95417.25;;;19.35;42.38
77889;BME280;67082;41.704;44.768;2023-03-25T11:59:59;95423.63;;;19.30;42.94
77889;BME280;67082;41.704;44.768;2023-03-25T12:02:39;95422.06;;;19.46;42.27
77889;BME280;67082;41.704;44.768;2023-03-25T12:07:47;95420.53;;;19.50;41.40
77889;BME280;67082;41.704;44.768;2023-03-25T12:10:27;95412.88;;;19.45;41.62
77889;BME280;67082;41.704;44.768;2023-03-25T12:13:07;95415.66;;;19.56;40.30
77889;BME280;67082;41.704;44.768;2023-03-25T12:15:56;95413.81;;;19.64;40.86
77889;BME280;67082;41.704;44.768;2023-03-25T12:21:49;95415.31;;;19.71;40.38
77889;BME280;67082;41.704;44.768;2023-03-25T12:47:24;95436.34;;;19.53;40.80
77889;BME280;67082;41.704;44.768;2023-03-25T12:50:48;95432.53;;;19.40;41.12
77889;BME280;67082;41.704;44.768;2023-03-25T12:56:14;95428.72;;;19.43;40.42
77889;BME280;67082;41.704;44.768;2023-03-25T13:07:10;95419.50;;;19.42;40.69
77889;BME280;67082;41.704;44.768;2023-03-25T13:09:59;95415.47;;;19.32;41.29
77889;BME280;67082;41.704;44.768;2023-03-25T13:13:02;95424.41;;;19.31;41.66
77889;BME280;67082;41.704;44.768;2023-03-25T13:15:42;95420.84;;;19.30;41.78
77889;BME280;67082;41.704;44.768;2023-03-25T13:18:24;95418.53;;;19.29;41.24
77889;BME280;67082;41.704;44.768;2023-03-25T13:23:40;95436.16;;;19.29;40.47
77889;BME280;67082;41.704;44.768;2023-03-25T13:26:22;95430.31;;;19.27;40.58
77889;BME280;67082;41.704;44.768;2023-03-25T13:29:31;95430.03;;;19.31;40.48
77889;BME280;67082;41.704;44.768;2023-03-25T13:32:06;95421.59;;;19.25;40.51
77889;BME280;67082;41.704;44.768;2023-03-25T13:34:53;95421.34;;;19.34;40.74
77889;BME280;67082;41.704;44.768;2023-03-25T13:37:28;95423.13;;;19.26;41.14
77889;BME280;67082;41.704;44.768;2023-03-25T13:40:04;95423.91;;;19.16;40.81
77889;BME280;67082;41.704;44.768;2023-03-25T13:45:53;95424.91;;;19.35;41.15
77889;BME280;67082;41.704;44.768;2023-03-25T13:51:00;95426.97;;;19.12;41.98
77889;BME280;67082;41.704;44.768;2023-03-25T14:12:03;95438.75;;;18.89;43.05
77889;BME280;67082;41.704;44.768;2023-03-25T14:14:40;95427.56;;;18.78;43.32
77889;BME280;67082;41.704;44.768;2023-03-25T14:17:10;95432.66;;;18.74;43.47
77889;BME280;67082;41.704;44.768;2023-03-25T14:19:43;95430.34;;;18.72;42.86
77889;BME280;67082;41.704;44.768;2023-03-25T14:22:19;95430.34;;;18.83;43.06
77889;BME280;67082;41.704;44.768;2023-03-25T14:24:49;95431.38;;;18.75;43.64
77889;BME280;67082;41.704;44.768;2023-03-25T14:27:26;95436.97;;;18.80;43.37
77889;BME280;67082;41.704;44.768;2023-03-25T14:32:35;95434.19;;;18.75;42.31
77889;BME280;67082;41.704;44.768;2023-03-25T14:54:19;95449.47;;;18.41;42.87
77889;BME280;67082;41.704;44.768;2023-03-25T14:57:16;95437.50;;;18.40;42.68
77889;BME280;67082;41.704;44.768;2023-03-25T14:59:47;95419.88;;;18.34;42.53
77889;BME280;67082;41.704;44.768;2023-03-25T15:02:23;95419.88;;;18.45;42.87
77889;BME280;67082;41.704;44.768;2023-03-25T15:07:41;95421.16;;;18.39;42.67
77889;BME280;67082;41.704;44.768;2023-03-25T15:10:31;95426.75;;;18.33;42.69
77889;BME280;67082;41.704;44.768;2023-03-25T15:13:26;95428.78;;;18.27;43.10
77889;BME280;67082;41.704;44.768;2023-03-25T15:23:46;95424.41;;;18.04;42.38
77889;BME280;67082;41.704;44.768;2023-03-25T15:26:37;95433.09;;;18.06;42.49
77889;BME280;67082;41.704;44.768;2023-03-25T15:43:50;95458.53;;;18.03;43.06
77889;BME280;67082;41.704;44.768;2023-03-25T15:52:10;95444.47;;;17.81;42.75
77889;BME280;67082;41.704;44.768;2023-03-25T15:54:53;95467.44;;;17.90;43.27
77889;BME280;67082;41.704;44.768;2023-03-25T15:57:28;95461.31;;;17.86;42.84
77889;BME280;67082;41.704;44.768;2023-03-25T16:05:33;95483.72;;;17.86;43.24
77889;BME280;67082;41.704;44.768;2023-03-25T16:08:08;95484.25;;;17.90;43.19
77889;BME280;67082;41.704;44.768;2023-03-25T16:10:37;95482.75;;;17.89;43.09
77889;BME280;67082;41.704;44.768;2023-03-25T16:13:13;95494.94;;;17.81;43.72
77889;BME280;67082;41.704;44.768;2023-03-25T16:15:54;95494.41;;;17.82;43.56
77889;BME280;67082;41.704;44.768;2023-03-25T16:18:23;95490.81;;;17.76;43.89
77889;BME280;67082;41.704;44.768;2023-03-25T16:20:56;95501.03;;;17.79;43.53
77889;BME280;67082;41.704;44.768;2023-03-25T16:23:28;95503.25;;;17.64;43.70
77889;BME280;67082;41.704;44.768;2023-03-25T16:25:57;95516.53;;;17.69;43.31
77889;BME280;67082;41.704;44.768;2023-03-25T16:28:31;95520.41;;;17.77;43.73
77889;BME280;67082;41.704;44.768;2023-03-25T16:30:59;95510.22;;;17.80;44.27
77889;BME280;67082;41.704;44.768;2023-03-25T16:33:37;95512.78;;;17.83;44.25